createdAt,value
2022-12-28T07:12:40.826Z,96.70
2022-12-28T07:15:08.938Z,96.50
2022-12-28T07:17:38.573Z,96.20
2022-12-28T07:27:06.576Z,95.60
2022-12-28T07:30:00.969Z,96.30
2022-12-28T07:32:31.924Z,96.30
2022-12-28T07:35:05.848Z,95.60
2022-12-28T07:37:37.841Z,96.10
2022-12-28T07:40:07.638Z,95.50
2022-12-28T07:42:35.167Z,95.70
2022-12-28T07:45:02.713Z,95.50
2022-12-28T07:47:30.174Z,95.60
2022-12-28T07:49:58.573Z,95.40
2022-12-28T07:52:25.960Z,95.40
2022-12-28T07:54:53.239Z,95.40
2022-12-28T07:57:20.542Z,95.50
2022-12-28T07:59:48.097Z,95.40
2022-12-28T08:02:15.560Z,95.40
2022-12-28T08:04:46.188Z,95.40
2022-12-28T08:07:18.866Z,95.50
2022-12-28T08:09:46.127Z,95.50
2022-12-28T08:12:13.491Z,95.40
2022-12-28T08:14:40.767Z,95.40
2022-12-28T08:17:08.141Z,95.40
2022-12-28T08:19:35.440Z,95.40
2022-12-28T08:22:02.861Z,95.40
2022-12-28T08:24:30.243Z,95.50
2022-12-28T08:26:57.958Z,95.40
2022-12-28T08:29:25.286Z,95.50
2022-12-28T08:31:52.778Z,95.50
2022-12-28T08:34:26.465Z,95.40
2022-12-28T08:36:54.921Z,95.80
2022-12-28T08:39:22.355Z,95.60
2022-12-28T08:41:51.318Z,95.60
2022-12-28T08:44:18.717Z,95.50
2022-12-28T08:46:46.660Z,95.60
2022-12-28T08:49:15.875Z,95.50
2022-12-28T08:51:43.364Z,95.80
2022-12-28T08:54:13.835Z,95.30
2022-12-28T08:56:43.220Z,95.30
2022-12-28T08:59:15.102Z,95.50
2022-12-28T09:01:44.468Z,95.60
2022-12-28T09:04:17.950Z,95.40
2022-12-28T09:06:45.884Z,95.50
2022-12-28T09:09:15.393Z,95.40
2022-12-28T09:11:43.609Z,95.40
2022-12-28T09:14:20.362Z,95.50
2022-12-28T09:17:25.951Z,95.40
2022-12-28T09:19:53.408Z,95.30
2022-12-28T09:22:21.804Z,95.10
2022-12-28T09:24:49.198Z,94.90
2022-12-28T09:27:18.500Z,94.50
2022-12-28T09:29:47.877Z,94.00
2022-12-28T09:32:20.266Z,94.10
2022-12-28T09:34:48.698Z,94.00
2022-12-28T09:37:16.907Z,94.00
2022-12-28T09:39:44.280Z,94.20
2022-12-28T10:31:03.447Z,93.50
2022-12-28T10:33:32.552Z,93.40
2022-12-28T10:36:01.566Z,92.80
2022-12-28T10:41:51.548Z,93.30
2022-12-28T10:44:40.035Z,93.10
2022-12-28T10:47:31.335Z,93.10
2022-12-28T10:52:58.313Z,92.80
2022-12-28T10:55:29.938Z,93.10
2022-12-28T10:58:30.702Z,93.00
2022-12-28T11:01:03.636Z,93.00
2022-12-28T11:06:36.345Z,92.70
2022-12-28T11:21:45.713Z,92.90
2022-12-28T11:27:25.257Z,92.60
2022-12-28T11:29:55.508Z,92.30
2022-12-28T11:32:32.788Z,92.60
2022-12-28T11:35:01.498Z,92.90
2022-12-28T11:37:32.431Z,92.60
2022-12-28T11:40:00.631Z,92.30
2022-12-28T11:42:56.490Z,92.30
2022-12-28T11:58:30.431Z,93.10
2022-12-28T12:01:07.515Z,93.10
2022-12-28T12:14:03.721Z,93.10
2022-12-28T12:16:58.856Z,92.70
2022-12-28T12:19:33.705Z,93.20
2022-12-28T12:22:17.631Z,93.10
2022-12-28T12:25:02.512Z,93.10
2022-12-28T12:27:32.479Z,92.70
2022-12-28T12:30:07.826Z,92.50
2022-12-28T12:32:45.159Z,92.70
2022-12-28T12:35:29.843Z,92.90
2022-12-28T12:38:10.991Z,93.10
2022-12-28T12:41:06.750Z,93.00
2022-12-28T12:44:08.353Z,93.00
2022-12-28T12:46:45.275Z,93.10
2022-12-28T12:49:50.952Z,93.50
2022-12-28T12:52:55.624Z,93.60
2022-12-28T12:55:55.159Z,93.20
2022-12-28T12:58:39.449Z,93.40
2022-12-28T13:01:28.190Z,93.60
2022-12-28T13:04:12.996Z,93.40
2022-12-28T13:06:41.949Z,93.40
2022-12-28T13:09:16.406Z,93.10
2022-12-28T13:11:44.579Z,93.50
2022-12-28T13:21:25.484Z,93.30
2022-12-28T13:23:53.687Z,93.20
2022-12-28T13:33:20.090Z,93.30
2022-12-28T13:36:17.945Z,93.70
2022-12-28T13:38:47.118Z,93.50
2022-12-28T13:41:25.612Z,93.00
2022-12-28T13:44:19.391Z,93.50
2022-12-28T13:46:55.166Z,93.50
2022-12-28T13:49:25.494Z,93.60
2022-12-28T13:51:53.689Z,93.40
2022-12-28T13:57:47.550Z,93.30
2022-12-28T14:00:21.686Z,93.00
2022-12-28T14:02:55.443Z,93.10
2022-12-28T14:05:29.595Z,93.00
2022-12-28T14:07:59.346Z,93.10
2022-12-28T14:10:28.430Z,92.90
2022-12-28T14:12:58.445Z,92.80
2022-12-28T14:15:26.914Z,92.80
2022-12-28T14:17:55.993Z,92.70
2022-12-28T14:20:24.046Z,92.90
2022-12-28T14:22:52.036Z,92.30
2022-12-28T14:25:22.593Z,92.40
2022-12-28T14:28:03.829Z,92.60
2022-12-28T14:30:38.630Z,92.80
2022-12-28T14:33:24.679Z,92.80
2022-12-28T14:35:56.612Z,93.00
2022-12-28T14:38:35.244Z,92.90
2022-12-28T14:41:04.526Z,93.00
2022-12-28T14:43:35.896Z,92.80
2022-12-28T14:46:36.182Z,92.80
2022-12-28T14:49:29.103Z,93.00
2022-12-28T14:52:09.999Z,92.80
2022-12-28T14:54:48.668Z,92.80
2022-12-28T14:57:44.063Z,92.80
2022-12-28T15:03:21.121Z,92.90
2022-12-28T15:05:50.040Z,92.90
2022-12-28T15:08:20.397Z,93.10
2022-12-28T15:10:54.506Z,92.50
2022-12-28T15:13:24.828Z,92.80
2022-12-28T15:16:02.092Z,92.50
2022-12-28T15:18:31.187Z,92.60
2022-12-28T15:30:53.429Z,92.60
2022-12-28T15:33:21.944Z,92.70
2022-12-28T15:35:50.080Z,92.00
2022-12-28T15:38:18.039Z,92.20
2022-12-28T15:40:47.112Z,92.30
2022-12-28T15:43:15.449Z,92.20
2022-12-28T15:45:43.611Z,92.00
2022-12-28T15:48:11.913Z,92.10
2022-12-28T15:50:40.381Z,92.20
2022-12-28T15:53:08.662Z,92.00
2022-12-28T15:55:37.299Z,92.20
2022-12-28T15:58:05.956Z,92.10
2022-12-28T16:00:45.689Z,91.80
2022-12-28T16:03:15.628Z,92.00
2022-12-28T16:05:43.448Z,92.20
2022-12-28T16:08:13.870Z,91.80
2022-12-28T16:10:42.204Z,91.80
2022-12-28T16:13:10.219Z,91.90
2022-12-28T16:15:40.622Z,91.60
2022-12-28T16:18:08.348Z,91.70
2022-12-28T16:21:03.673Z,91.40
2022-12-28T16:23:37.812Z,91.80
2022-12-28T16:26:07.037Z,91.70
2022-12-28T16:28:35.821Z,91.50
2022-12-28T16:31:04.317Z,91.50
2022-12-28T16:33:33.293Z,91.40
2022-12-28T16:36:01.018Z,91.50
2022-12-28T16:38:29.545Z,91.40
2022-12-28T16:40:58.043Z,91.50
2022-12-28T16:43:28.746Z,91.30
2022-12-28T16:45:56.894Z,91.20
2022-12-28T16:48:26.995Z,91.20
2022-12-28T16:50:59.165Z,91.30
2022-12-28T16:53:27.697Z,91.30
2022-12-28T16:55:59.198Z,91.50
2022-12-28T16:58:27.697Z,91.30
2022-12-28T17:00:57.985Z,91.30
2022-12-28T17:03:25.782Z,91.40
2022-12-28T17:05:53.395Z,91.50
2022-12-28T17:08:21.208Z,91.70
2022-12-28T17:10:48.642Z,91.40
2022-12-28T17:13:16.334Z,91.20
2022-12-28T17:15:45.722Z,91.50
2022-12-28T17:18:14.335Z,91.50
2022-12-28T17:20:44.932Z,91.50
2022-12-28T17:23:13.232Z,91.60
2022-12-28T17:25:51.446Z,91.80
2022-12-28T17:28:19.271Z,91.60
2022-12-28T17:30:50.051Z,91.40
2022-12-28T17:33:19.030Z,91.40
2022-12-28T17:35:47.295Z,91.20
2022-12-28T17:38:15.501Z,91.40
2022-12-28T17:41:08.853Z,91.30
2022-12-28T17:43:37.027Z,91.10
2022-12-28T17:46:05.587Z,91.20
2022-12-28T17:48:35.961Z,91.10
2022-12-28T17:51:11.096Z,91.20
2022-12-28T17:53:41.842Z,91.50
2022-12-28T17:56:13.359Z,91.30
2022-12-28T17:58:44.828Z,90.80
2022-12-28T18:01:18.911Z,90.70
2022-12-28T18:03:55.507Z,90.80
2022-12-28T18:06:25.197Z,90.60
2022-12-28T18:08:53.312Z,90.80
2022-12-28T18:11:22.532Z,90.60
2022-12-28T18:13:51.505Z,90.40
2022-12-28T18:16:22.743Z,90.60
2022-12-28T18:18:50.673Z,90.90
2022-12-28T18:21:21.909Z,90.80
2022-12-28T18:23:52.746Z,90.90
2022-12-28T18:26:26.198Z,91.10
2022-12-28T18:28:54.655Z,91.00
2022-12-28T18:31:24.990Z,91.10
2022-12-28T18:33:52.734Z,91.00
2022-12-28T18:36:20.792Z,91.10
2022-12-28T18:38:49.536Z,91.10
2022-12-28T18:41:20.593Z,91.10
2022-12-28T18:43:49.657Z,91.10
2022-12-28T18:46:18.722Z,91.00
2022-12-28T18:48:46.326Z,91.30
2022-12-28T18:51:17.189Z,91.20
2022-12-28T18:53:45.485Z,91.00
2022-12-28T18:56:16.071Z,91.10
2022-12-28T18:58:44.482Z,91.10
2022-12-28T19:01:32.792Z,91.20
2022-12-28T19:04:02.526Z,91.20
2022-12-28T19:06:30.292Z,91.20
2022-12-28T19:09:01.829Z,91.10
2022-12-28T19:11:32.384Z,91.10
2022-12-28T19:14:02.848Z,91.30
2022-12-28T19:16:32.058Z,91.30
2022-12-28T19:19:00.928Z,91.10
2022-12-28T19:21:32.492Z,91.00
2022-12-28T19:24:03.597Z,91.10
2022-12-28T19:26:33.389Z,91.30
2022-12-28T19:29:03.630Z,91.10
2022-12-28T19:31:32.759Z,91.20
2022-12-28T19:34:01.293Z,90.90
2022-12-28T19:36:34.322Z,91.10
2022-12-28T19:39:02.555Z,91.00
2022-12-28T19:41:30.547Z,91.10
2022-12-28T19:44:01.464Z,90.80
2022-12-28T19:46:35.915Z,90.90
2022-12-28T19:49:06.659Z,91.00
2022-12-28T19:51:34.939Z,91.30
2022-12-28T19:54:03.738Z,90.90
2022-12-28T19:56:32.008Z,90.90
2022-12-28T19:59:06.086Z,91.20
2022-12-28T20:02:02.094Z,91.10
2022-12-28T20:04:30.031Z,91.40
2022-12-28T20:06:57.641Z,91.20
2022-12-28T20:09:25.318Z,91.20
2022-12-28T20:11:53.013Z,91.10
2022-12-28T20:14:25.025Z,91.20
2022-12-28T20:16:53.011Z,91.10
2022-12-28T20:19:20.608Z,91.10
2022-12-28T20:21:49.543Z,91.20
2022-12-28T20:24:19.874Z,91.20
2022-12-28T20:26:47.698Z,91.30
2022-12-28T20:29:16.418Z,90.90
2022-12-28T20:31:46.135Z,91.40
2022-12-28T20:34:14.387Z,91.50
2022-12-28T20:36:42.171Z,91.20
2022-12-28T20:39:09.731Z,91.40
2022-12-28T20:44:48.296Z,91.40
2022-12-28T20:47:17.424Z,91.40
2022-12-28T20:49:45.051Z,91.20
2022-12-28T20:54:54.295Z,91.20
2022-12-28T20:57:21.724Z,91.50
2022-12-28T20:59:49.015Z,91.40
2022-12-28T21:02:16.470Z,91.50
2022-12-28T21:04:44.141Z,91.50
2022-12-28T21:07:11.663Z,91.60
2022-12-28T21:09:38.944Z,91.80
2022-12-28T21:12:07.510Z,91.60
2022-12-28T21:14:35.065Z,91.70
2022-12-28T21:17:02.462Z,91.70
2022-12-28T21:19:29.758Z,91.80
2022-12-28T21:21:57.085Z,91.90
2022-12-28T21:24:24.978Z,92.00
2022-12-28T21:26:58.626Z,91.90
2022-12-28T21:29:26.987Z,92.00
2022-12-28T21:31:55.159Z,91.90
2022-12-28T21:34:23.138Z,91.80
2022-12-28T21:36:50.416Z,91.70
2022-12-28T21:39:17.788Z,91.60
2022-12-28T21:41:51.529Z,91.70
2022-12-28T21:44:24.274Z,91.60
2022-12-28T21:46:53.407Z,91.60
2022-12-28T21:49:21.174Z,91.50
2022-12-28T21:51:48.589Z,91.50
2022-12-28T21:54:21.596Z,91.60
2022-12-28T21:56:54.991Z,91.60
2022-12-28T21:59:26.217Z,91.80
2022-12-28T22:02:13.010Z,91.70
2022-12-28T22:05:02.912Z,91.70
2022-12-28T22:07:31.327Z,91.90
2022-12-28T22:13:29.473Z,91.70
2022-12-28T22:16:26.866Z,91.50
2022-12-28T22:22:38.821Z,91.50
2022-12-28T22:25:33.906Z,91.80
2022-12-28T22:28:02.466Z,91.30
2022-12-28T22:30:36.462Z,91.80
2022-12-28T22:33:06.052Z,92.00
2022-12-28T22:35:34.929Z,91.80
2022-12-28T22:38:05.774Z,91.70
2022-12-28T22:40:33.759Z,91.60
2022-12-28T22:43:01.934Z,91.60
2022-12-28T22:45:30.319Z,91.40
2022-12-28T22:48:01.584Z,91.60
2022-12-28T22:50:29.686Z,91.60
2022-12-28T22:52:58.335Z,91.60
2022-12-28T23:04:51.608Z,92.20
2022-12-28T23:07:19.961Z,92.10
2022-12-28T23:09:48.187Z,92.00
2022-12-28T23:12:16.452Z,92.00
2022-12-28T23:15:03.052Z,92.00
2022-12-28T23:17:31.747Z,92.30
2022-12-28T23:20:21.136Z,92.10
2022-12-28T23:23:12.279Z,92.00
2022-12-28T23:26:08.121Z,92.20
2022-12-28T23:28:36.318Z,92.50
2022-12-28T23:31:05.109Z,92.10
2022-12-28T23:33:33.137Z,91.80
2022-12-28T23:36:04.085Z,91.90
2022-12-28T23:38:33.288Z,92.30
2022-12-28T23:41:24.607Z,92.10
2022-12-28T23:43:54.886Z,92.30
2022-12-28T23:46:23.236Z,92.20
2022-12-28T23:48:51.422Z,92.40
2022-12-28T23:51:19.623Z,92.00
2022-12-28T23:53:51.443Z,92.40
2022-12-28T23:56:21.910Z,92.40
2022-12-28T23:58:52.908Z,92.40
